Loei Airport
VTUL : now visible

Airfield :











YOU CAN JOIN US ON...

 
LOGIN :

Register | Disclaimer

   EN    FR    IT 

 









Legend :    VFR   Marginal VFR   IFR   Intensive IFR   Very Intensive IFR
Visi :
Ceiling :
>= 8 km
>= 3000ft
5 to 8 km
1000 to 3000 ft
1500m to 5 km
500 to 1000 ft
800 to 1500m
200 to 500 ft
< 800m
< 200 ft
Symbols :   Thunderstorms  Fog  Heavy snow  Heavy precipitations  Wind > 20 kt






- Airport Elevation : 860 ft
- IATA code : LOE


VTUL - Loei

CURRENT METAR :
  • 161100Z 22003KT 190V260 9999 BKN030 26/26 Q1002 RETS NOSIG

EXPIRED METARs :
  • 161000Z 21003KT 160V270 8000 -TSRA FEW015CB BKN030 26/26 Q1003 RERA NOSIG
  • 160900Z 21005KT 180V240 8000 -RA BKN030 27/26 Q1003 RETS NOSIG
  • 160800Z VRB07KT 6000 -TSRA SCT015CB BKN030 25/25 Q1003 NOSIG
  • 160700Z VRB05KT 8000 BKN030 26/26 Q1004 NOSIG

TAF TAF VTUL
Valid from the 16 at 06:00 until the 17 at 06:00 UTC


160500Z 1606/1706 30005KT 8000 SCT025
TEMPO 1607/1613 VRB15KT 4000 TSRA FEW018CB BKN025
VTBB FIR / Asia



MET'MAP, your aeronautical weather chart ! - Copyright ORBIFLY December 2007 - Disclaimer

ORBIFLY MET'MAP TEAM :

Programming & Development : Alexandra Zaïnal
Original concept : Baudouin d'Aumeries
Technical & hardware support : Manuel Goepfert
Assistance : Marc-Olivier Méhu




SOURCES & CREDITS :

   NOAA       Earth
Advisory